createdAt,value
2018-08-10T00:04:00.284Z,1.73
2018-08-10T00:08:03.475Z,1.70
2018-08-10T00:12:06.560Z,1.73
2018-08-10T00:16:09.720Z,1.73
2018-08-10T00:20:14.567Z,1.10
2018-08-10T00:24:17.714Z,1.37
2018-08-10T00:28:20.783Z,1.30
2018-08-10T00:32:24.516Z,1.40
2018-08-10T00:36:27.588Z,1.40
2018-08-10T00:40:30.692Z,1.17
2018-08-10T00:44:33.779Z,3.20
2018-08-10T00:48:36.997Z,1.70
2018-08-10T00:52:40.195Z,1.30
2018-08-10T00:56:43.428Z,1.70
2018-08-10T01:00:46.624Z,1.47
2018-08-10T01:04:49.755Z,1.60
2018-08-10T01:08:52.842Z,1.63
2018-08-10T01:12:55.971Z,2.60
2018-08-10T01:16:59.048Z,1.77
2018-08-10T01:21:02.256Z,1.47
2018-08-10T01:25:05.344Z,2.20
2018-08-10T01:29:08.556Z,1.63
2018-08-10T01:33:11.627Z,1.77
2018-08-10T01:37:14.746Z,3.00
2018-08-10T01:41:17.852Z,2.77
2018-08-10T01:45:20.987Z,2.00
2018-08-10T01:49:24.079Z,1.70
2018-08-10T01:53:27.204Z,1.63
2018-08-10T01:57:30.288Z,2.23
2018-08-10T02:01:33.791Z,2.23
2018-08-10T02:05:36.860Z,1.50
2018-08-10T02:09:40.087Z,1.63
2018-08-10T02:13:43.164Z,2.03
2018-08-10T02:17:46.308Z,1.27
2018-08-10T02:21:49.377Z,1.10
2018-08-10T02:25:52.588Z,0.90
2018-08-10T02:29:55.973Z,1.20
2018-08-10T02:33:59.071Z,1.50
2018-08-10T02:38:02.206Z,0.87
2018-08-10T02:42:05.525Z,1.37
2018-08-10T02:46:08.876Z,1.10
2018-08-10T02:50:11.955Z,1.10
2018-08-10T02:54:15.163Z,1.13
2018-08-10T02:58:18.256Z,0.80
2018-08-10T03:02:21.400Z,1.57
2018-08-10T03:06:24.471Z,1.20
2018-08-10T03:10:27.692Z,1.10
2018-08-10T03:14:30.771Z,1.77
2018-08-10T03:18:33.903Z,1.83
2018-08-10T03:22:36.999Z,1.50
2018-08-10T03:26:40.286Z,1.43
2018-08-10T03:30:43.367Z,1.10
2018-08-10T03:34:46.482Z,1.53
2018-08-10T03:38:49.547Z,1.17
2018-08-10T03:42:52.652Z,1.50
2018-08-10T03:46:55.816Z,1.50
2018-08-10T03:50:59.015Z,1.70
2018-08-10T03:55:02.089Z,2.00
2018-08-10T03:59:05.312Z,1.33
2018-08-10T04:03:08.407Z,1.47
2018-08-10T04:07:11.605Z,1.17
2018-08-10T04:11:14.684Z,1.33
2018-08-10T04:15:17.880Z,2.20
2018-08-10T04:19:20.976Z,1.67
2018-08-10T04:23:24.148Z,1.70
2018-08-10T04:27:27.220Z,1.40
2018-08-10T04:31:30.431Z,1.23
2018-08-10T04:35:33.511Z,1.73
2018-08-10T04:39:36.708Z,2.10
2018-08-10T04:43:39.809Z,1.83
2018-08-10T04:47:48.511Z,1.70
2018-08-10T04:51:51.588Z,1.70
2018-08-10T04:55:54.808Z,1.77
2018-08-10T04:59:57.883Z,1.77
2018-08-10T05:04:01.020Z,2.13
2018-08-10T05:08:04.101Z,1.90
2018-08-10T05:12:07.205Z,2.23
2018-08-10T05:16:10.292Z,1.87
2018-08-10T05:20:13.415Z,2.07
2018-08-10T05:24:16.486Z,1.50
2018-08-10T05:28:19.776Z,1.93
2018-08-10T05:32:23.055Z,4.33
2018-08-10T05:36:26.185Z,1.50
2018-08-10T05:40:29.745Z,2.40
2018-08-10T05:44:32.940Z,2.10
2018-08-10T05:48:38.138Z,2.23
2018-08-10T05:52:41.252Z,1.67
2018-08-10T05:56:44.320Z,1.97
2018-08-10T06:00:47.430Z,2.07
2018-08-10T06:04:50.505Z,2.20
2018-08-10T06:08:53.715Z,2.20
2018-08-10T06:12:56.796Z,2.20
2018-08-10T06:16:59.898Z,2.23
2018-08-10T06:21:02.968Z,2.10
2018-08-10T06:25:06.533Z,2.80
2018-08-10T06:29:09.551Z,1.97
2018-08-10T06:33:12.687Z,2.23
2018-08-10T06:37:15.786Z,2.27
2018-08-10T06:41:19.000Z,2.20
2018-08-10T06:45:22.234Z,2.10
2018-08-10T06:49:25.408Z,1.60
2018-08-10T06:53:28.507Z,2.13
2018-08-10T06:57:31.697Z,1.77
2018-08-10T07:01:34.802Z,1.80
2018-08-10T07:05:37.735Z,1.10
2018-08-10T07:09:40.807Z,1.80
2018-08-10T07:13:43.988Z,2.13
2018-08-10T07:17:46.984Z,2.20
2018-08-10T07:21:50.088Z,1.97
2018-08-10T07:25:53.163Z,2.53
2018-08-10T07:29:56.340Z,2.03
2018-08-10T07:33:59.409Z,2.57
2018-08-10T07:38:02.622Z,3.20
2018-08-10T07:42:05.531Z,3.60
2018-08-10T07:46:08.744Z,3.50
2018-08-10T07:50:12.144Z,2.87
2018-08-10T07:54:15.232Z,4.07
2018-08-10T07:58:18.301Z,4.20
2018-08-10T08:02:21.500Z,4.80
2018-08-10T08:06:24.572Z,4.70
2018-08-10T08:10:28.004Z,5.07
2018-08-10T08:14:31.024Z,5.03
2018-08-10T08:18:34.475Z,4.53
2018-08-10T08:22:37.328Z,4.23
2018-08-10T08:26:40.476Z,4.53
2018-08-10T08:30:43.343Z,5.53
2018-08-10T08:34:46.308Z,4.27
2018-08-10T08:39:03.499Z,5.50
2018-08-10T08:43:06.487Z,4.60
2018-08-10T08:47:09.560Z,5.37
2018-08-10T08:51:15.564Z,5.40
2018-08-10T08:55:27.120Z,6.33
2018-08-10T08:59:30.039Z,6.10
2018-08-10T09:03:44.656Z,6.40
2018-08-10T09:07:47.620Z,7.57
2018-08-10T09:11:50.640Z,7.43
2018-08-10T09:15:53.643Z,8.80
2018-08-10T09:19:56.740Z,6.90
2018-08-10T09:23:59.873Z,7.43
2018-08-10T09:28:02.789Z,8.93
2018-08-10T09:32:06.107Z,9.90
2018-08-10T09:36:09.187Z,8.40
2018-08-10T09:40:14.601Z,8.17
2018-08-10T09:44:17.848Z,10.00
2018-08-10T09:48:21.072Z,10.13
2018-08-10T09:52:24.360Z,10.53
2018-08-10T09:56:27.468Z,8.50
2018-08-10T10:00:35.842Z,7.80
2018-08-10T10:04:38.832Z,6.77
2018-08-10T10:08:41.909Z,6.87
2018-08-10T10:12:45.144Z,6.60
2018-08-10T10:16:48.224Z,6.67
2018-08-10T10:20:51.473Z,5.07
2018-08-10T10:24:54.511Z,4.43
2018-08-10T10:28:57.570Z,4.43
2018-08-10T10:33:00.636Z,5.43
2018-08-10T10:37:03.540Z,2.60
2018-08-10T10:41:06.640Z,1.97
2018-08-10T10:45:10.512Z,2.00
2018-08-10T10:49:13.935Z,1.60
2018-08-10T10:53:17.235Z,1.50
2018-08-10T10:57:20.304Z,1.50
2018-08-10T11:01:23.463Z,1.93
2018-08-10T11:05:26.553Z,1.77
2018-08-10T11:09:29.667Z,1.87
2018-08-10T11:13:32.736Z,2.17
2018-08-10T11:17:35.909Z,1.90
2018-08-10T11:21:38.996Z,1.93
2018-08-10T11:25:42.309Z,2.20
2018-08-10T11:29:45.280Z,2.63
2018-08-10T11:33:48.387Z,2.50
2018-08-10T11:37:51.460Z,2.90
2018-08-10T11:41:54.580Z,3.30
2018-08-10T11:45:57.651Z,3.60
2018-08-10T11:50:00.810Z,3.47
2018-08-10T11:54:04.024Z,2.80
2018-08-10T11:58:07.134Z,3.50
2018-08-10T12:02:10.230Z,4.20
2018-08-10T12:06:13.500Z,2.73
2018-08-10T12:10:16.518Z,3.03
2018-08-10T12:14:19.724Z,2.70
2018-08-10T12:18:22.808Z,2.90
2018-08-10T12:22:25.944Z,3.70
2018-08-10T12:26:29.023Z,3.50
2018-08-10T12:30:32.144Z,3.10
2018-08-10T12:34:35.212Z,3.20
2018-08-10T12:38:39.196Z,2.60
2018-08-10T12:42:42.264Z,2.30
2018-08-10T12:46:45.392Z,2.60
2018-08-10T12:50:48.558Z,2.23
2018-08-10T12:54:51.980Z,2.73
2018-08-10T12:58:55.107Z,2.00
2018-08-10T13:02:58.259Z,1.73
2018-08-10T13:07:01.308Z,1.77
2018-08-10T13:11:04.436Z,2.90
2018-08-10T13:15:08.904Z,3.07
2018-08-10T13:19:12.012Z,2.83
2018-08-10T13:23:15.079Z,2.87
2018-08-10T13:27:18.278Z,3.40
2018-08-10T13:31:21.339Z,2.90
2018-08-10T13:35:24.637Z,3.10
2018-08-10T13:39:27.798Z,2.50
2018-08-10T13:43:31.604Z,3.07
2018-08-10T13:47:34.660Z,3.50
2018-08-10T13:51:37.776Z,2.63
2018-08-10T13:55:41.080Z,4.03
2018-08-10T13:59:44.268Z,3.50
2018-08-10T14:03:47.348Z,3.70
2018-08-10T14:07:50.859Z,3.47
2018-08-10T14:11:53.927Z,4.10
2018-08-10T14:15:57.174Z,2.77
2018-08-10T14:20:00.152Z,2.70
2018-08-10T14:24:03.428Z,3.43
2018-08-10T14:28:06.505Z,3.17
2018-08-10T14:32:10.440Z,2.90
2018-08-10T14:36:13.516Z,3.20
2018-08-10T14:40:16.631Z,3.10
2018-08-10T14:44:19.711Z,3.33
2018-08-10T14:48:22.848Z,4.40
2018-08-10T14:52:25.917Z,3.50
2018-08-10T14:56:29.359Z,3.47
2018-08-10T15:00:32.466Z,3.67
2018-08-10T15:04:35.596Z,4.10
2018-08-10T15:08:38.661Z,3.40
2018-08-10T15:12:42.135Z,3.40
2018-08-10T15:16:44.836Z,4.00
2018-08-10T15:20:47.972Z,3.80
2018-08-10T15:24:51.061Z,3.00
2018-08-10T15:28:54.160Z,3.40
2018-08-10T15:32:57.233Z,3.77
2018-08-10T15:37:00.425Z,3.50
2018-08-10T15:41:03.493Z,3.67
2018-08-10T15:45:08.943Z,4.03
2018-08-10T15:49:11.828Z,3.33
2018-08-10T15:53:14.928Z,3.30
2018-08-10T15:57:18.320Z,3.90
2018-08-10T16:01:21.683Z,3.57
2018-08-10T16:05:24.764Z,3.70
2018-08-10T16:09:27.904Z,4.27
2018-08-10T16:13:30.771Z,3.40
2018-08-10T16:17:34.214Z,2.70
2018-08-10T16:21:37.292Z,3.30
2018-08-10T16:25:40.472Z,2.40
2018-08-10T16:29:43.610Z,2.83
2018-08-10T16:33:46.722Z,3.60
2018-08-10T16:37:49.816Z,2.60
2018-08-10T16:41:52.939Z,2.60
2018-08-10T16:45:56.016Z,2.57
2018-08-10T16:49:59.128Z,3.07
2018-08-10T16:54:02.220Z,2.80
2018-08-10T16:58:05.510Z,2.77
2018-08-10T17:02:08.923Z,3.53
2018-08-10T17:06:12.050Z,1.93
2018-08-10T17:10:15.125Z,2.13
2018-08-10T17:14:18.333Z,2.07
2018-08-10T17:18:21.415Z,1.80
2018-08-10T17:22:24.604Z,1.93
2018-08-10T17:26:27.724Z,2.63
2018-08-10T17:30:30.892Z,2.83
2018-08-10T17:34:33.967Z,2.60
2018-08-10T17:38:37.132Z,1.70
2018-08-10T17:42:40.228Z,2.40
2018-08-10T17:46:43.398Z,1.97
2018-08-10T17:50:46.660Z,2.30
2018-08-10T17:54:49.917Z,2.37
2018-08-10T17:58:53.090Z,2.37
2018-08-10T18:02:56.212Z,2.60
2018-08-10T18:06:59.283Z,2.10
2018-08-10T18:11:02.416Z,2.00
2018-08-10T18:15:07.243Z,1.70
2018-08-10T18:19:10.715Z,2.07
2018-08-10T18:23:13.725Z,1.60
2018-08-10T18:27:16.834Z,1.77
2018-08-10T18:31:19.906Z,1.60
2018-08-10T18:35:23.119Z,1.70
2018-08-10T18:39:26.429Z,1.90
2018-08-10T18:43:29.517Z,2.00
2018-08-10T18:47:32.668Z,2.03
2018-08-10T18:51:35.735Z,1.93
2018-08-10T18:55:38.935Z,1.90
2018-08-10T18:59:42.192Z,1.73
2018-08-10T19:03:45.385Z,2.43
2018-08-10T19:07:48.872Z,1.83
2018-08-10T19:11:51.971Z,1.70
2018-08-10T19:15:55.351Z,2.10
2018-08-10T19:19:58.647Z,1.83
2018-08-10T19:24:01.861Z,1.70
2018-08-10T19:28:04.963Z,1.50
2018-08-10T19:32:08.090Z,2.30
2018-08-10T19:36:11.175Z,2.33
2018-08-10T19:40:15.616Z,2.10
2018-08-10T19:44:18.692Z,3.93
2018-08-10T19:48:21.954Z,4.00
2018-08-10T19:52:24.973Z,3.60
2018-08-10T19:56:28.072Z,3.60
2018-08-10T20:00:31.148Z,3.60
2018-08-10T20:04:34.348Z,3.97
2018-08-10T20:08:37.426Z,4.93
2018-08-10T20:12:40.536Z,4.83
2018-08-10T20:16:43.610Z,3.40
2018-08-10T20:20:46.967Z,3.20
2018-08-10T20:24:50.328Z,2.60
2018-08-10T20:28:53.532Z,2.27
2018-08-10T20:32:56.616Z,2.37
2018-08-10T20:36:59.924Z,3.33
2018-08-10T20:41:03.001Z,2.70
2018-08-10T20:45:06.685Z,3.40
2018-08-10T20:49:09.772Z,3.37
2018-08-10T20:53:12.887Z,4.27
2018-08-10T20:57:15.983Z,3.93
2018-08-10T21:01:19.131Z,3.20
2018-08-10T21:05:23.088Z,3.53
2018-08-10T21:09:26.185Z,3.60
2018-08-10T21:13:29.263Z,3.87
2018-08-10T21:17:32.503Z,4.77
2018-08-10T21:21:35.688Z,4.97
2018-08-10T21:25:38.885Z,4.37
2018-08-10T21:29:42.058Z,5.00
2018-08-10T21:33:45.284Z,4.97
2018-08-10T21:37:48.484Z,4.93
2018-08-10T21:41:51.556Z,4.30
2018-08-10T21:45:54.632Z,3.90
2018-08-10T21:49:57.766Z,2.17
2018-08-10T21:54:00.868Z,1.60
2018-08-10T21:58:04.013Z,1.33
2018-08-10T22:02:08.778Z,1.00
2018-08-10T22:06:12.004Z,1.23
2018-08-10T22:10:15.088Z,1.93
2018-08-10T22:14:23.753Z,1.23
2018-08-10T22:18:32.211Z,1.70
2018-08-10T22:22:35.519Z,1.17
2018-08-10T22:26:38.612Z,1.10
2018-08-10T22:30:41.811Z,1.40
2018-08-10T22:34:44.919Z,1.27
2018-08-10T22:38:48.056Z,1.33
2018-08-10T22:42:51.152Z,0.97
2018-08-10T22:46:54.289Z,0.90
2018-08-10T22:50:57.380Z,1.10
2018-08-10T22:55:00.517Z,1.50
2018-08-10T22:59:03.603Z,1.20
2018-08-10T23:03:06.776Z,1.40
2018-08-10T23:07:09.820Z,1.40
2018-08-10T23:11:13.036Z,1.07
2018-08-10T23:15:16.139Z,1.60
2018-08-10T23:19:19.272Z,1.30
2018-08-10T23:23:22.468Z,1.73
2018-08-10T23:27:25.821Z,1.47
2018-08-10T23:31:28.913Z,1.77
2018-08-10T23:35:32.249Z,1.83
2018-08-10T23:39:35.328Z,1.63
2018-08-10T23:43:38.477Z,1.77
2018-08-10T23:47:42.264Z,1.87
2018-08-10T23:51:45.392Z,2.20
2018-08-10T23:55:48.477Z,2.17
2018-08-10T23:59:51.613Z,1.90
